Time;durP1;ratioP1;P1;durP2;ratioP2;P2;SDS_P1;SDS_P2;PMS_P1;PMS_P2;Temp;Humidity;BMP_temperature;BMP_pressure;BME280_temperature;BME280_humidity;BME280_pressure;Samples;Min_cycle;Max_cycle;Signal;HPM_P1;HPM_P2
2022/06/28 00:00:49;;;;;;;9.80;8.50;;;26.70;99.90;;;;;;6284527;28;20539;-65
2022/06/28 00:03:52;;;;;;;9.40;8.53;;;26.70;99.90;;;;;;6287163;28;20372;-65
2022/06/28 00:06:57;;;;;;;10.00;8.80;;;26.60;99.90;;;;;;6277902;28;20250;-64
2022/06/28 00:10:02;;;;;;;10.83;9.00;;;26.60;99.90;;;;;;6275818;28;20223;-64
2022/06/28 00:13:05;;;;;;;9.97;8.90;;;26.60;99.90;;;;;;6275733;28;20227;-64
2022/06/28 00:16:08;;;;;;;12.10;9.20;;;26.50;99.90;;;;;;6275837;28;20230;-64
2022/06/28 00:19:12;;;;;;;12.87;9.27;;;26.60;99.90;;;;;;6275906;28;20364;-64
2022/06/28 00:22:15;;;;;;;10.93;9.83;;;26.50;99.90;;;;;;6277062;28;20241;-64
2022/06/28 00:25:19;;;;;;;9.90;8.90;;;26.50;99.90;;;;;;6278052;28;20230;-64
2022/06/28 00:28:23;;;;;;;10.73;9.63;;;26.50;99.90;;;;;;6291991;28;20230;-64
2022/06/28 00:31:26;;;;;;;9.23;8.40;;;26.50;99.90;;;;;;6300109;28;20226;-65
2022/06/28 00:34:29;;;;;;;9.83;8.93;;;26.40;99.90;;;;;;6277870;28;20704;-65
2022/06/28 00:37:33;;;;;;;11.03;9.83;;;26.40;99.90;;;;;;6277785;28;20793;-65
2022/06/28 00:40:44;;;;;;;11.90;9.40;;;26.30;99.90;;;;;;6275340;28;20241;-65
2022/06/28 00:43:47;;;;;;;10.40;9.50;;;26.40;99.90;;;;;;6284946;28;20231;-68
2022/06/28 00:46:50;;;;;;;10.73;9.60;;;26.30;99.90;;;;;;6295442;28;20227;-68
2022/06/28 00:49:56;;;;;;;11.20;10.10;;;26.30;99.90;;;;;;6286987;28;20268;-68
2022/06/28 00:53:00;;;;;;;11.77;10.27;;;26.30;99.90;;;;;;6287694;28;20250;-68
2022/06/28 00:56:05;;;;;;;13.17;10.67;;;26.30;99.90;;;;;;6285744;28;20301;-68
2022/06/28 00:59:08;;;;;;;11.83;10.70;;;26.20;99.90;;;;;;6285692;28;20917;-69
2022/06/28 01:02:12;;;;;;;11.13;10.03;;;26.20;99.90;;;;;;6287548;28;20222;-69
2022/06/28 01:05:15;;;;;;;12.17;11.00;;;26.10;99.90;;;;;;6277022;28;20310;-69
2022/06/28 01:08:19;;;;;;;12.57;10.40;;;26.10;99.90;;;;;;6286532;28;20226;-69
2022/06/28 01:11:23;;;;;;;12.57;11.13;;;26.10;99.90;;;;;;6287376;28;20219;-69
2022/06/28 01:14:26;;;;;;;11.97;10.87;;;26.10;99.90;;;;;;6285400;28;20222;-68
2022/06/28 01:17:30;;;;;;;14.80;12.17;;;26.00;99.90;;;;;;6284744;28;20336;-69
2022/06/28 01:20:33;;;;;;;15.93;12.50;;;26.00;99.90;;;;;;6284656;28;20214;-69
2022/06/28 01:23:38;;;;;;;12.83;11.83;;;26.00;99.90;;;;;;6280057;28;20231;-69
2022/06/28 01:26:42;;;;;;;13.30;11.97;;;26.00;99.90;;;;;;6275112;28;20231;-69
2022/06/28 01:29:45;;;;;;;12.97;11.87;;;25.90;99.90;;;;;;6275420;28;20581;-69
2022/06/28 01:32:49;;;;;;;13.13;11.83;;;25.90;99.90;;;;;;6275054;28;20231;-69
2022/06/28 01:35:52;;;;;;;11.90;10.70;;;25.90;99.90;;;;;;6275530;28;20290;-69
2022/06/28 01:38:57;;;;;;;13.03;11.40;;;25.90;99.90;;;;;;6278711;28;20550;-68
2022/06/28 01:42:00;;;;;;;12.13;10.90;;;25.90;99.90;;;;;;6279429;28;20231;-68
2022/06/28 01:45:04;;;;;;;12.03;11.13;;;25.90;99.90;;;;;;6278855;28;20245;-68
2022/06/28 01:48:08;;;;;;;12.50;10.60;;;25.80;99.90;;;;;;6279446;28;20223;-68
2022/06/28 01:51:11;;;;;;;12.93;11.00;;;25.80;99.90;;;;;;6279287;28;20242;-68
2022/06/28 01:54:16;;;;;;;10.40;9.13;;;25.80;99.90;;;;;;6278889;28;20219;-69
2022/06/28 01:57:20;;;;;;;11.77;10.47;;;25.80;99.90;;;;;;6279495;28;20234;-69
2022/06/28 02:00:23;;;;;;;10.73;9.73;;;25.80;99.90;;;;;;6279140;28;20223;-69
2022/06/28 02:03:26;;;;;;;10.87;8.87;;;25.80;99.90;;;;;;6279739;28;20239;-69
2022/06/28 02:06:29;;;;;;;11.43;10.07;;;25.80;99.90;;;;;;6278746;28;20239;-69
2022/06/28 02:09:34;;;;;;;12.00;9.87;;;25.70;99.90;;;;;;6274482;28;20232;-69
2022/06/28 02:12:37;;;;;;;13.77;10.00;;;25.70;99.90;;;;;;6278630;28;20659;-69
2022/06/28 02:15:41;;;;;;;9.53;8.70;;;25.70;99.90;;;;;;6278543;28;20235;-69
2022/06/28 02:18:44;;;;;;;10.97;8.97;;;25.70;99.90;;;;;;6279149;28;20207;-69
2022/06/28 02:21:47;;;;;;;10.77;9.67;;;25.60;99.90;;;;;;6278860;28;20203;-69
2022/06/28 02:24:52;;;;;;;11.20;10.10;;;25.60;99.90;;;;;;6278479;28;20238;-69
2022/06/28 02:27:55;;;;;;;10.83;9.50;;;25.50;99.90;;;;;;6278298;28;20678;-69
2022/06/28 02:30:58;;;;;;;9.73;8.90;;;25.50;99.90;;;;;;6278296;28;20627;-68
2022/06/28 02:34:01;;;;;;;10.17;9.20;;;25.50;99.90;;;;;;6278676;28;20234;-69
2022/06/28 02:40:27;;;;;;;11.60;8.87;;;25.40;99.90;;;;;;6278713;28;20227;-69
2022/06/28 02:43:30;;;;;;;12.27;10.13;;;25.30;99.90;;;;;;6277803;28;20236;-69
2022/06/28 02:46:33;;;;;;;13.17;9.13;;;25.30;99.90;;;;;;6277494;28;20573;-68
2022/06/28 02:49:36;;;;;;;11.43;10.33;;;25.30;99.90;;;;;;6277607;28;20238;-69
2022/06/28 02:52:40;;;;;;;12.20;9.73;;;25.20;99.90;;;;;;6277972;28;20655;-69
2022/06/28 02:55:45;;;;;;;10.47;9.23;;;25.20;99.90;;;;;;6277287;28;20239;-70
2022/06/28 02:58:48;;;;;;;10.57;9.50;;;25.20;99.90;;;;;;6278223;28;20659;-69
2022/06/28 03:01:51;;;;;;;12.63;9.40;;;25.20;99.90;;;;;;6278133;28;20242;-68
2022/06/28 03:04:55;;;;;;;10.77;9.67;;;25.20;99.90;;;;;;6278159;28;20255;-68
2022/06/28 03:07:58;;;;;;;12.17;8.60;;;25.20;99.90;;;;;;6277246;28;20586;-69
2022/06/28 03:11:02;;;;;;;12.73;9.00;;;25.20;99.90;;;;;;6273103;28;20234;-69
2022/06/28 03:14:05;;;;;;;8.90;8.00;;;25.20;99.90;;;;;;6277292;28;20238;-69
2022/06/28 03:17:08;;;;;;;10.53;7.83;;;25.20;99.90;;;;;;6277049;28;20227;-69
2022/06/28 03:20:12;;;;;;;9.17;8.27;;;25.20;99.90;;;;;;6277090;28;20224;-69
2022/06/28 03:23:15;;;;;;;9.33;6.53;;;25.20;99.90;;;;;;6276832;28;20228;-69
2022/06/28 03:26:20;;;;;;;8.83;8.00;;;25.30;99.90;;;;;;6276837;28;20243;-68
2022/06/28 03:29:23;;;;;;;7.47;6.77;;;25.20;99.90;;;;;;6276851;28;20693;-68
2022/06/28 03:32:26;;;;;;;13.93;7.67;;;25.00;99.90;;;;;;6276723;28;20227;-68
2022/06/28 03:35:29;;;;;;;9.70;7.43;;;25.10;99.90;;;;;;6276820;28;20235;-68
2022/06/28 03:38:32;;;;;;;9.00;7.50;;;25.10;99.90;;;;;;6276858;28;20228;-68
2022/06/28 03:41:37;;;;;;;13.23;7.03;;;25.10;99.90;;;;;;6276471;28;20224;-68
2022/06/28 03:44:40;;;;;;;9.03;7.30;;;25.20;99.90;;;;;;6276436;28;20587;-68
2022/06/28 03:47:44;;;;;;;11.80;8.10;;;25.20;99.90;;;;;;6276232;28;20227;-68
2022/06/28 03:50:47;;;;;;;8.40;7.60;;;25.30;99.90;;;;;;6276413;28;20223;-69
2022/06/28 03:53:51;;;;;;;14.23;9.13;;;25.40;99.90;;;;;;6276162;28;20376;-69
2022/06/28 03:56:55;;;;;;;10.57;8.53;;;25.40;99.90;;;;;;6276117;28;20658;-68
2022/06/28 04:00:01;;;;;;;9.90;8.90;;;25.40;99.90;;;;;;6275189;28;20746;-66
2022/06/28 04:03:04;;;;;;;13.73;8.97;;;25.40;99.90;;;;;;6275737;28;20250;-66
2022/06/28 04:06:07;;;;;;;12.70;9.20;;;25.40;99.90;;;;;;6276041;28;20250;-66
2022/06/28 04:09:10;;;;;;;12.30;9.90;;;25.40;99.90;;;;;;6275905;28;20552;-66
2022/06/28 04:12:16;;;;;;;10.63;9.60;;;25.40;99.90;;;;;;6275887;28;20245;-66
2022/06/28 04:15:20;;;;;;;12.40;9.83;;;25.40;99.90;;;;;;6271472;28;20588;-66
2022/06/28 04:18:23;;;;;;;15.50;10.30;;;25.50;99.90;;;;;;6275911;28;20321;-65
2022/06/28 04:21:26;;;;;;;12.53;9.80;;;25.50;99.90;;;;;;6275584;28;20223;-66
2022/06/28 04:24:29;;;;;;;10.27;9.20;;;25.50;99.90;;;;;;6275324;28;20231;-67
2022/06/28 04:27:34;;;;;;;11.73;9.67;;;25.60;99.90;;;;;;6275439;28;20228;-65
2022/06/28 04:30:37;;;;;;;10.43;9.43;;;25.80;99.90;;;;;;6275206;28;20557;-66
2022/06/28 04:33:40;;;;;;;11.10;10.07;;;25.80;99.90;;;;;;6275652;28;20203;-66
2022/06/28 04:36:43;;;;;;;23.37;11.10;;;25.90;99.90;;;;;;6275241;28;20242;-66
2022/06/28 04:39:47;;;;;;;11.80;10.47;;;25.90;99.90;;;;;;6275642;28;20536;-66
2022/06/28 04:42:51;;;;;;;11.30;10.20;;;26.00;99.90;;;;;;6275446;28;20207;-65
2022/06/28 04:45:55;;;;;;;13.67;10.27;;;26.10;99.90;;;;;;6275138;28;20243;-67
2022/06/28 04:48:58;;;;;;;13.83;11.10;;;26.30;99.90;;;;;;6274090;28;20733;-67
2022/06/28 04:52:01;;;;;;;14.20;9.23;;;26.60;99.90;;;;;;6274931;28;20562;-66
2022/06/28 04:55:05;;;;;;;10.97;9.63;;;26.80;99.90;;;;;;6274740;28;20231;-66
2022/06/28 04:58:10;;;;;;;11.17;9.73;;;27.10;99.90;;;;;;6275165;28;20227;-66
2022/06/28 05:01:13;;;;;;;12.80;9.37;;;27.30;99.90;;;;;;6275142;28;20226;-66
2022/06/28 05:04:17;;;;;;;12.17;9.87;;;27.40;99.90;;;;;;6275369;28;20662;-66
2022/06/28 05:07:20;;;;;;;10.73;9.70;;;27.60;99.90;;;;;;6275352;28;20235;-65
2022/06/28 05:10:23;;;;;;;14.30;9.93;;;27.80;99.90;;;;;;6276226;28;20227;-66
2022/06/28 05:13:29;;;;;;;10.50;9.33;;;28.00;99.90;;;;;;6280005;28;20276;-65
2022/06/28 05:16:32;;;;;;;14.23;8.97;;;28.20;99.40;;;;;;6279792;28;20342;-66
2022/06/28 05:19:35;;;;;;;14.03;10.00;;;28.40;98.60;;;;;;6280011;28;20238;-67
2022/06/28 05:22:38;;;;;;;10.43;8.90;;;28.50;98.00;;;;;;6288247;28;20222;-67
2022/06/28 05:25:42;;;;;;;11.47;8.63;;;28.60;97.80;;;;;;6296157;28;20300;-66
2022/06/28 05:28:46;;;;;;;10.80;8.27;;;28.60;97.60;;;;;;6304828;28;20676;-66
2022/06/28 05:31:50;;;;;;;11.13;8.63;;;28.60;97.60;;;;;;6304447;28;20230;-65
2022/06/28 05:34:53;;;;;;;13.43;8.00;;;28.70;97.10;;;;;;6304685;28;20680;-66
2022/06/28 05:37:57;;;;;;;8.10;7.30;;;28.70;95.50;;;;;;6304250;28;20305;-65
2022/06/28 05:41:00;;;;;;;9.67;8.30;;;28.70;95.50;;;;;;6292734;28;20218;-66
2022/06/28 05:44:05;;;;;;;10.23;8.13;;;28.70;95.20;;;;;;6288303;28;20242;-69
2022/06/28 05:47:10;;;;;;;8.90;7.60;;;28.60;95.80;;;;;;6289150;28;20238;-69
2022/06/28 05:50:13;;;;;;;10.33;8.10;;;29.00;95.40;;;;;;6288376;28;20227;-69
2022/06/28 05:53:16;;;;;;;9.00;7.87;;;29.10;94.50;;;;;;6291273;28;20222;-69
2022/06/28 05:56:19;;;;;;;8.13;7.33;;;29.30;94.10;;;;;;6292169;28;20548;-69
2022/06/28 05:59:24;;;;;;;8.20;7.20;;;29.50;92.70;;;;;;6285184;28;20227;-69
2022/06/28 06:02:27;;;;;;;10.90;8.00;;;29.60;91.90;;;;;;6295451;28;20672;-69
2022/06/28 06:05:30;;;;;;;8.40;6.40;;;29.20;92.00;;;;;;6293372;28;20541;-69
2022/06/28 06:08:35;;;;;;;6.87;6.00;;;29.00;91.40;;;;;;6278908;28;20238;-70
2022/06/28 06:11:38;;;;;;;7.97;7.23;;;29.30;91.30;;;;;;6278828;28;20304;-70
2022/06/28 06:14:43;;;;;;;7.63;6.83;;;29.80;92.00;;;;;;6278565;28;20219;-70
2022/06/28 06:17:46;;;;;;;7.83;7.10;;;30.00;92.00;;;;;;6278533;28;20235;-69
2022/06/28 06:20:49;;;;;;;8.95;6.65;;;30.40;91.10;;;;;;6278698;28;20223;-70
2022/06/28 06:23:52;;;;;;;6.03;5.53;;;30.60;89.50;;;;;;6268507;28;20242;-69
2022/06/28 06:26:55;;;;;;;5.72;5.00;;;31.10;88.60;;;;;;6278352;28;20241;-69
2022/06/28 06:30:00;;;;;;;4.00;3.67;;;31.30;85.00;;;;;;6278249;28;20512;-70
2022/06/28 06:33:03;;;;;;;6.10;3.63;;;31.10;79.40;;;;;;6278216;28;20611;-69
2022/06/28 06:36:06;;;;;;;6.45;3.22;;;31.60;76.90;;;;;;6277956;28;20227;-70
2022/06/28 06:39:10;;;;;;;5.45;3.88;;;31.90;73.90;;;;;;6278207;28;20238;-69
2022/06/28 06:42:13;;;;;;;6.28;3.30;;;32.50;73.00;;;;;;6278046;28;20324;-70
2022/06/28 06:45:17;;;;;;;3.60;2.90;;;33.00;69.70;;;;;;6277476;28;20241;-70
2022/06/28 06:48:21;;;;;;;6.15;4.00;;;33.10;67.80;;;;;;6277596;28;20242;-69
2022/06/28 06:51:24;;;;;;;5.18;3.90;;;33.30;66.40;;;;;;6277781;28;20238;-69
2022/06/28 06:54:27;;;;;;;3.85;3.53;;;33.50;66.00;;;;;;6278241;28;20541;-68
2022/06/28 06:57:30;;;;;;;4.93;4.10;;;33.60;65.30;;;;;;6278976;28;20243;-69
2022/06/28 07:00:35;;;;;;;4.15;3.72;;;33.90;65.70;;;;;;6278865;28;20235;-69
2022/06/28 07:03:44;;;;;;;6.85;3.50;;;33.90;64.90;;;;;;6277340;28;20211;-69
2022/06/28 07:06:47;;;;;;;4.90;3.28;;;34.60;63.40;;;;;;6277099;28;20231;-69
2022/06/28 07:09:50;;;;;;;4.40;3.15;;;35.40;59.40;;;;;;6277202;28;20209;-69
2022/06/28 07:12:53;;;;;;;4.50;2.42;;;36.20;55.50;;;;;;6277730;28;20213;-69
2022/06/28 07:15:58;;;;;;;4.68;2.58;;;37.00;53.40;;;;;;6277216;28;20231;-69
2022/06/28 07:19:02;;;;;;;4.97;2.40;;;36.70;53.10;;;;;;6277393;28;20230;-69
2022/06/28 07:22:05;;;;;;;6.18;2.80;;;35.90;52.50;;;;;;6277416;28;20223;-71
2022/06/28 07:25:09;;;;;;;4.43;2.88;;;34.90;54.20;;;;;;6276715;28;20230;-69
2022/06/28 07:28:12;;;;;;;7.20;3.72;;;34.70;55.00;;;;;;6281964;28;20241;-69
2022/06/28 07:31:17;;;;;;;3.55;2.50;;;34.10;56.10;;;;;;6276728;28;20237;-69
2022/06/28 07:34:20;;;;;;;3.65;3.20;;;34.10;56.50;;;;;;6275897;28;20718;-70
2022/06/28 07:37:23;;;;;;;3.30;3.00;;;35.20;55.60;;;;;;6275477;28;20230;-69
2022/06/28 07:40:31;;;;;;;4.07;3.60;;;36.40;53.80;;;;;;6286980;28;20557;-69
2022/06/28 07:43:35;;;;;;;3.50;3.20;;;36.50;52.80;;;;;;6276273;28;20227;-69
2022/06/28 07:46:39;;;;;;;4.32;3.47;;;35.90;52.50;;;;;;6276127;28;20227;-69
2022/06/28 07:53:05;;;;;;;7.57;4.15;;;36.00;53.70;;;;;;6291184;28;20368;-69
2022/06/28 07:56:08;;;;;;;4.82;4.18;;;35.80;54.30;;;;;;6291400;28;20558;-69
2022/06/28 07:59:11;;;;;;;6.95;4.45;;;35.50;54.30;;;;;;6289486;28;20230;-68
2022/06/28 08:02:16;;;;;;;5.22;3.95;;;34.90;55.20;;;;;;6288534;28;20226;-69
2022/06/28 08:05:19;;;;;;;4.65;4.25;;;34.40;56.00;;;;;;6278282;28;20229;-70
2022/06/28 08:08:23;;;;;;;5.32;4.20;;;34.10;56.80;;;;;;6280958;28;20235;-67
2022/06/28 08:11:26;;;;;;;4.40;4.10;;;33.60;57.00;;;;;;6294330;28;20662;-69
2022/06/28 08:14:29;;;;;;;5.28;4.72;;;33.40;57.70;;;;;;6299702;28;20226;-67
2022/06/28 08:17:34;;;;;;;4.28;3.90;;;33.50;57.20;;;;;;6299869;28;20215;-68
2022/06/28 08:20:37;;;;;;;4.10;3.80;;;33.40;56.50;;;;;;6299626;28;20214;-67
2022/06/28 08:23:41;;;;;;;5.20;4.70;;;33.50;57.70;;;;;;6286423;28;20218;-67
2022/06/28 08:26:44;;;;;;;7.97;4.75;;;32.90;60.00;;;;;;6297721;28;20227;-67
2022/06/28 08:29:47;;;;;;;6.85;4.57;;;33.00;60.30;;;;;;6299073;28;20222;-67
2022/06/28 08:32:52;;;;;;;5.05;4.25;;;33.40;60.50;;;;;;6299527;28;20229;-67
2022/06/28 08:35:55;;;;;;;5.75;5.25;;;33.60;59.70;;;;;;6299407;28;20222;-67
2022/06/28 08:38:59;;;;;;;5.90;4.97;;;33.90;59.10;;;;;;6300030;28;20223;-67
2022/06/28 08:42:04;;;;;;;6.13;5.07;;;33.70;58.90;;;;;;6299960;28;20662;-68
2022/06/28 08:45:09;;;;;;;6.72;6.20;;;33.60;58.80;;;;;;6287987;28;20237;-68
2022/06/28 08:48:22;;;;;;;6.00;5.50;;;33.70;59.00;;;;;;6299461;28;20223;-67
2022/06/28 08:51:30;;;;;;;6.43;5.30;;;33.50;60.00;;;;;;6286773;28;20227;-67
2022/06/28 08:54:34;;;;;;;7.15;6.40;;;33.60;61.20;;;;;;6299367;28;20275;-69
2022/06/28 08:57:43;;;;;;;6.85;6.22;;;33.60;60.30;;;;;;6301492;28;20207;-67
2022/06/28 09:00:47;;;;;;;6.90;6.32;;;33.90;61.00;;;;;;6301138;28;20621;-66
2022/06/28 09:03:53;;;;;;;6.10;5.57;;;33.80;59.60;;;;;;6299337;28;20618;-66
2022/06/28 09:06:56;;;;;;;6.20;5.60;;;33.80;59.60;;;;;;6299300;28;20222;-69
2022/06/28 09:09:59;;;;;;;9.27;5.38;;;34.10;58.80;;;;;;6299442;28;20237;-67
2022/06/28 09:13:07;;;;;;;6.40;5.80;;;34.30;58.10;;;;;;6299360;28;20227;-67
2022/06/28 09:16:11;;;;;;;5.82;5.22;;;34.30;57.20;;;;;;6299329;28;20233;-68
2022/06/28 09:19:16;;;;;;;5.20;4.80;;;34.40;57.50;;;;;;6288624;28;20230;-68
2022/06/28 09:22:41;;;;;;;7.53;5.13;;;34.40;57.10;;;;;;6299126;28;20230;-69
2022/06/28 09:25:46;;;;;;;5.35;4.95;;;34.30;57.00;;;;;;6294696;28;20249;-68
2022/06/28 09:28:52;;;;;;;5.45;5.00;;;33.70;57.30;;;;;;6297438;28;20241;-67
2022/06/28 09:31:55;;;;;;;6.70;5.43;;;33.50;57.70;;;;;;6292567;28;20235;-68
2022/06/28 09:35:01;;;;;;;6.13;5.53;;;33.60;58.10;;;;;;6262342;28;20234;-67
2022/06/28 09:38:05;;;;;;;5.90;5.28;;;33.90;57.60;;;;;;6273004;28;20230;-67
2022/06/28 09:41:20;;;;;;;5.43;5.03;;;33.70;57.40;;;;;;6281780;28;20223;-67
2022/06/28 09:44:27;;;;;;;6.38;5.85;;;33.80;58.70;;;;;;6277099;28;20224;-67
2022/06/28 09:47:30;;;;;;;5.85;5.35;;;34.00;58.70;;;;;;6276977;28;20229;-67
2022/06/28 09:51:00;;;;;;;5.80;5.40;;;34.00;59.10;;;;;;6298923;28;20226;-68
2022/06/28 09:54:05;;;;;;;6.13;5.63;;;34.00;59.10;;;;;;6298847;28;20236;-68
2022/06/28 09:57:22;;;;;;;6.78;5.00;;;33.30;59.90;;;;;;6299791;28;20231;-67
2022/06/28 10:00:26;;;;;;;5.78;5.30;;;32.40;59.10;;;;;;6300208;28;20697;-67
2022/06/28 10:03:29;;;;;;;6.85;4.75;;;32.20;60.30;;;;;;6303351;28;20245;-67
2022/06/28 10:06:35;;;;;;;5.18;4.68;;;32.30;59.40;;;;;;6302918;28;20226;-67
2022/06/28 10:09:39;;;;;;;5.57;5.10;;;32.30;60.20;;;;;;6296844;28;20268;-67
2022/06/28 10:16:12;;;;;;;6.63;5.07;;;32.40;61.20;;;;;;6286578;28;20227;-67
2022/06/28 10:19:18;;;;;;;4.95;4.55;;;32.70;61.10;;;;;;6283398;28;20245;-67
2022/06/28 10:22:22;;;;;;;6.65;5.13;;;33.20;60.20;;;;;;6289099;28;20215;-68
2022/06/28 10:25:26;;;;;;;5.30;4.75;;;33.90;58.90;;;;;;6291149;28;20234;-67
2022/06/28 10:28:37;;;;;;;5.93;5.45;;;34.20;58.00;;;;;;6287616;28;20257;-68
2022/06/28 10:31:41;;;;;;;6.47;5.30;;;33.00;59.80;;;;;;6282027;28;20227;-67
2022/06/28 10:34:51;;;;;;;5.88;5.40;;;33.10;61.00;;;;;;6302774;28;20577;-67
2022/06/28 10:38:18;;;;;;;5.85;5.55;;;33.20;61.10;;;;;;6293114;28;20313;-69
2022/06/28 10:41:21;;;;;;;9.77;6.05;;;33.40;60.30;;;;;;6302640;28;20238;-69
2022/06/28 10:44:26;;;;;;;7.05;6.45;;;33.40;61.00;;;;;;6302719;28;20223;-68
2022/06/28 10:47:29;;;;;;;7.10;6.18;;;33.40;61.00;;;;;;6302437;28;20223;-68
2022/06/28 10:50:57;;;;;;;6.20;5.68;;;33.70;60.50;;;;;;6307078;28;20260;-68
2022/06/28 10:54:06;;;;;;;7.30;6.60;;;33.50;60.10;;;;;;6311779;28;20222;-67
2022/06/28 10:57:22;;;;;;;6.57;6.18;;;33.40;59.70;;;;;;6307451;28;20309;-69
2022/06/28 11:00:28;;;;;;;7.35;6.68;;;33.00;60.70;;;;;;6302247;28;20238;-68
2022/06/28 11:03:31;;;;;;;8.95;5.60;;;33.00;61.30;;;;;;6302423;28;20230;-67
2022/06/28 11:06:41;;;;;;;6.53;6.03;;;33.00;60.90;;;;;;6301735;28;20653;-67
2022/06/28 11:10:11;;;;;;;6.78;6.20;;;33.10;60.00;;;;;;6301625;28;20207;-67
2022/06/28 11:13:22;;;;;;;7.10;6.30;;;33.10;60.20;;;;;;6303061;28;20313;-67
2022/06/28 11:16:44;;;;;;;6.88;6.28;;;32.70;60.70;;;;;;6306909;28;20543;-68
2022/06/28 11:19:52;;;;;;;6.95;6.38;;;32.90;60.70;;;;;;6302622;28;20242;-68
2022/06/28 11:22:55;;;;;;;7.88;6.80;;;33.00;60.30;;;;;;6302235;28;20317;-67
2022/06/28 11:29:36;;;;;;;7.72;7.13;;;33.40;59.90;;;;;;6302041;28;20231;-67
2022/06/28 11:32:43;;;;;;;8.05;7.43;;;33.80;58.70;;;;;;6301797;28;20222;-67
2022/06/28 11:35:46;;;;;;;8.10;7.47;;;33.70;58.50;;;;;;6301575;28;20242;-67
2022/06/28 11:38:51;;;;;;;6.75;6.35;;;33.80;59.40;;;;;;6301484;28;20230;-68
2022/06/28 11:41:57;;;;;;;7.78;7.22;;;34.00;58.80;;;;;;6298836;28;20230;-67
2022/06/28 11:45:01;;;;;;;7.60;7.00;;;33.90;58.90;;;;;;6286714;28;20235;-67
2022/06/28 11:48:05;;;;;;;8.32;7.63;;;33.90;59.70;;;;;;6295635;28;20668;-67
2022/06/28 11:51:09;;;;;;;7.43;6.93;;;33.90;59.70;;;;;;6283945;28;20226;-67
2022/06/28 11:54:15;;;;;;;7.57;7.03;;;33.90;59.40;;;;;;6288924;28;20372;-67
2022/06/28 11:57:19;;;;;;;7.93;7.43;;;33.90;60.00;;;;;;6285681;28;20554;-67
2022/06/28 12:00:23;;;;;;;8.02;7.30;;;34.00;60.00;;;;;;6289003;28;20228;-68
2022/06/28 12:03:27;;;;;;;7.82;7.22;;;34.00;59.80;;;;;;6287487;28;20309;-67
2022/06/28 12:06:32;;;;;;;10.27;8.00;;;33.90;59.60;;;;;;6288491;28;20288;-68
2022/06/28 12:09:44;;;;;;;8.98;8.27;;;34.00;59.10;;;;;;6290362;28;20227;-67
2022/06/28 12:12:48;;;;;;;9.07;8.43;;;33.40;59.70;;;;;;6286711;28;20215;-66
2022/06/28 12:15:51;;;;;;;8.82;8.23;;;33.40;61.10;;;;;;6291091;28;20218;-67
2022/06/28 12:18:56;;;;;;;8.80;8.10;;;33.50;61.00;;;;;;6286030;28;20192;-66
2022/06/28 12:22:01;;;;;;;9.38;8.55;;;33.80;60.30;;;;;;6287724;28;20642;-68
2022/06/28 12:25:10;;;;;;;8.50;7.70;;;33.80;59.80;;;;;;6291170;28;20642;-66
2022/06/28 12:28:15;;;;;;;8.43;7.78;;;33.70;60.50;;;;;;6288300;28;20595;-67
2022/06/28 12:31:18;;;;;;;8.20;7.70;;;33.40;60.40;;;;;;6299302;28;20682;-66
2022/06/28 12:34:21;;;;;;;7.63;7.13;;;33.20;60.90;;;;;;6300084;28;20230;-67
2022/06/28 12:37:25;;;;;;;9.13;8.40;;;33.60;60.30;;;;;;6299587;28;20226;-67
2022/06/28 12:40:28;;;;;;;8.75;7.28;;;33.40;59.90;;;;;;6299998;28;20238;-67
2022/06/28 12:43:33;;;;;;;7.93;7.18;;;33.50;60.30;;;;;;6299451;28;20249;-67
2022/06/28 12:46:36;;;;;;;8.75;7.97;;;33.80;59.80;;;;;;6291022;28;20238;-67
2022/06/28 12:49:39;;;;;;;8.20;7.38;;;33.80;59.50;;;;;;6299751;28;20537;-68
2022/06/28 12:52:44;;;;;;;7.78;7.15;;;33.90;59.30;;;;;;6300709;28;20230;-67
2022/06/28 12:55:47;;;;;;;6.65;6.10;;;33.80;59.90;;;;;;6283311;28;20379;-67
2022/06/28 12:58:52;;;;;;;6.72;6.05;;;34.00;59.30;;;;;;6299541;28;20244;-67
2022/06/28 13:01:55;;;;;;;9.30;7.15;;;34.10;59.90;;;;;;6299343;28;20528;-68
2022/06/28 13:04:59;;;;;;;7.13;6.53;;;34.30;58.30;;;;;;6299544;28;20237;-69
2022/06/28 13:08:03;;;;;;;7.30;6.80;;;34.10;59.50;;;;;;6289924;28;20226;-68
2022/06/28 13:11:07;;;;;;;7.07;6.57;;;33.30;59.80;;;;;;6274335;28;20249;-68
2022/06/28 13:14:11;;;;;;;7.50;6.80;;;32.90;60.80;;;;;;6273739;28;20223;-67
2022/06/28 13:17:14;;;;;;;7.30;6.80;;;32.70;61.70;;;;;;6273132;28;20239;-66
2022/06/28 13:20:18;;;;;;;7.40;6.80;;;32.90;61.60;;;;;;6273136;28;20285;-68
2022/06/28 13:23:32;;;;;;;6.97;6.57;;;32.90;62.40;;;;;;6273133;28;20227;-68
2022/06/28 13:26:35;;;;;;;7.22;6.70;;;32.80;61.30;;;;;;6273242;28;20246;-68
2022/06/28 13:29:40;;;;;;;7.75;7.15;;;32.80;61.50;;;;;;6273666;28;20231;-67
2022/06/28 13:32:43;;;;;;;8.38;7.53;;;32.90;61.40;;;;;;6275694;28;20234;-66
2022/06/28 13:35:48;;;;;;;8.20;7.60;;;32.70;62.20;;;;;;6277789;28;20235;-67
2022/06/28 13:38:51;;;;;;;7.28;6.80;;;32.80;60.90;;;;;;6276895;28;20540;-68
2022/06/28 13:42:07;;;;;;;7.65;6.95;;;33.10;61.10;;;;;;6277016;28;20685;-68
2022/06/28 13:45:14;;;;;;;7.93;7.32;;;33.20;60.10;;;;;;6276990;28;20253;-67
2022/06/28 13:48:17;;;;;;;7.93;7.22;;;33.40;60.30;;;;;;6277847;28;20246;-67
2022/06/28 13:51:20;;;;;;;7.78;7.10;;;33.50;59.60;;;;;;6274014;28;20279;-67
2022/06/28 13:54:24;;;;;;;7.72;7.13;;;33.00;60.50;;;;;;6278713;28;20559;-68
2022/06/28 13:57:35;;;;;;;7.47;6.90;;;32.60;61.90;;;;;;6278647;28;20234;-67
2022/06/28 14:00:40;;;;;;;7.55;7.15;;;32.50;62.10;;;;;;6278600;28;20239;-68
2022/06/28 14:03:43;;;;;;;7.40;6.90;;;32.60;62.20;;;;;;6277731;28;20527;-67
2022/06/28 14:06:46;;;;;;;7.35;6.65;;;32.80;61.60;;;;;;6278486;28;20839;-67
2022/06/28 14:09:49;;;;;;;6.60;6.20;;;32.60;62.60;;;;;;6278656;28;20552;-67
2022/06/28 14:12:53;;;;;;;6.55;6.13;;;32.50;62.60;;;;;;6278697;28;20237;-67
2022/06/28 14:15:57;;;;;;;7.28;6.72;;;32.70;62.40;;;;;;6278703;28;20227;-67
2022/06/28 14:19:00;;;;;;;6.57;6.15;;;32.60;61.50;;;;;;6278296;28;20299;-67
2022/06/28 14:22:04;;;;;;;7.72;7.13;;;32.50;61.60;;;;;;6278391;28;20234;-67
2022/06/28 14:25:08;;;;;;;7.10;6.70;;;32.30;62.30;;;;;;6278243;28;20257;-67
2022/06/28 14:28:11;;;;;;;6.93;6.28;;;32.30;62.10;;;;;;6278112;28;20234;-67
2022/06/28 14:31:16;;;;;;;6.97;6.45;;;32.40;61.90;;;;;;6277951;28;20682;-67
2022/06/28 14:34:40;;;;;;;7.00;6.32;;;32.60;61.30;;;;;;6278860;28;20698;-67
2022/06/28 14:37:43;;;;;;;7.30;6.30;;;32.70;61.60;;;;;;6279988;28;20705;-67
2022/06/28 14:40:47;;;;;;;6.32;5.82;;;32.90;61.30;;;;;;6279096;28;20222;-67
2022/06/28 14:43:50;;;;;;;6.72;6.10;;;32.50;61.90;;;;;;6277571;28;20234;-67
2022/06/28 14:46:54;;;;;;;6.57;5.70;;;32.60;62.10;;;;;;6277729;28;20223;-67
2022/06/28 14:49:58;;;;;;;8.13;6.10;;;32.70;61.50;;;;;;6277988;28;20239;-67
2022/06/28 14:53:02;;;;;;;6.30;5.72;;;32.70;61.80;;;;;;6277654;28;20227;-67
2022/06/28 14:56:05;;;;;;;7.32;6.78;;;32.50;61.60;;;;;;6277178;28;20238;-67
2022/06/28 14:59:08;;;;;;;6.40;6.00;;;32.30;62.50;;;;;;6277400;28;20227;-67
2022/06/28 15:02:13;;;;;;;8.63;6.30;;;32.20;62.70;;;;;;6277642;28;20227;-66
2022/06/28 15:05:17;;;;;;;6.90;6.40;;;32.10;63.10;;;;;;6277378;28;20238;-66
2022/06/28 15:08:21;;;;;;;7.35;6.65;;;32.10;63.50;;;;;;6277371;28;20242;-66
2022/06/28 15:11:24;;;;;;;7.90;6.97;;;32.10;63.10;;;;;;6277183;28;20272;-66
2022/06/28 15:14:28;;;;;;;7.57;7.07;;;32.10;63.10;;;;;;6277109;28;20730;-66
2022/06/28 15:17:33;;;;;;;7.63;6.93;;;32.00;63.10;;;;;;6276694;28;20526;-67
2022/06/28 15:20:36;;;;;;;6.55;6.07;;;32.10;63.10;;;;;;6277011;28;20651;-67
2022/06/28 15:33:54;;;;;;;5.90;5.50;;;31.40;66.10;;;;;;6299816;28;20228;-66
2022/06/28 15:36:58;;;;;;;6.28;5.80;;;31.30;65.40;;;;;;6301499;28;20223;-66
2022/06/28 15:40:01;;;;;;;6.47;5.97;;;31.10;66.20;;;;;;6301359;28;20248;-67
2022/06/28 15:43:04;;;;;;;7.60;7.10;;;31.10;66.90;;;;;;6301042;28;20233;-68
2022/06/28 15:46:07;;;;;;;7.15;6.55;;;31.00;67.20;;;;;;6301187;28;20244;-67
2022/06/28 15:49:12;;;;;;;7.28;6.35;;;31.00;67.10;;;;;;6290988;28;20235;-69
2022/06/28 15:52:15;;;;;;;7.22;6.63;;;31.00;67.30;;;;;;6281582;28;20246;-69
2022/06/28 15:55:18;;;;;;;7.22;6.63;;;31.00;68.10;;;;;;6291674;28;20222;-67
2022/06/28 15:58:21;;;;;;;8.10;7.50;;;30.70;67.70;;;;;;6275705;28;20686;-68
2022/06/28 16:01:25;;;;;;;6.93;6.43;;;30.50;68.90;;;;;;6296362;28;20245;-68
2022/06/28 16:04:31;;;;;;;8.02;7.38;;;30.60;69.50;;;;;;6300439;28;20226;-68
2022/06/28 16:07:34;;;;;;;9.25;8.00;;;30.50;69.70;;;;;;6300618;28;20232;-67
2022/06/28 16:10:38;;;;;;;7.10;6.60;;;30.50;69.90;;;;;;6275682;28;20227;-66
2022/06/28 16:13:41;;;;;;;7.43;6.82;;;30.20;70.60;;;;;;6273675;28;20704;-68
2022/06/28 16:16:44;;;;;;;8.20;7.37;;;30.20;71.20;;;;;;6273747;28;20226;-68
2022/06/28 16:19:49;;;;;;;9.18;8.40;;;30.20;71.70;;;;;;6273663;28;20223;-67